createdAt,value
2017-08-03T00:02:11.578Z,21.40
2017-08-03T00:04:39.025Z,21.40
2017-08-03T00:07:06.468Z,21.30
2017-08-03T00:09:33.923Z,21.30
2017-08-03T00:12:01.379Z,21.40
2017-08-03T00:14:29.610Z,21.40
2017-08-03T00:16:57.059Z,21.40
2017-08-03T00:19:24.523Z,21.40
2017-08-03T00:21:52.001Z,21.10
2017-08-03T00:24:19.470Z,21.20
2017-08-03T00:26:46.915Z,21.20
2017-08-03T00:29:14.363Z,21.10
2017-08-03T00:31:41.820Z,21.10
2017-08-03T00:34:09.259Z,21.10
2017-08-03T00:36:36.711Z,21.20
2017-08-03T00:39:04.167Z,21.30
2017-08-03T00:41:31.622Z,21.30
2017-08-03T00:43:59.083Z,21.10
2017-08-03T00:46:26.576Z,20.90
2017-08-03T00:48:54.028Z,20.70
2017-08-03T00:51:21.470Z,20.70
2017-08-03T00:53:48.931Z,20.80
2017-08-03T00:56:16.387Z,21.00
2017-08-03T00:58:43.846Z,21.10
2017-08-03T01:01:11.296Z,21.10
2017-08-03T01:03:38.757Z,21.20
2017-08-03T01:06:06.201Z,21.00
2017-08-03T01:08:33.667Z,20.90
2017-08-03T01:11:01.123Z,20.70
2017-08-03T01:13:28.599Z,20.60
2017-08-03T01:15:56.051Z,20.60
2017-08-03T01:18:23.507Z,20.40
2017-08-03T01:20:50.963Z,20.50
2017-08-03T02:37:46.895Z,20.90
2017-08-03T02:40:14.347Z,20.90
2017-08-03T02:42:41.791Z,21.00
2017-08-03T02:45:10.024Z,21.20
2017-08-03T02:47:37.479Z,21.20
2017-08-03T02:50:04.935Z,21.30
2017-08-03T02:52:32.395Z,21.20
2017-08-03T02:54:59.834Z,21.20
2017-08-03T02:57:27.290Z,21.20
2017-08-03T02:59:54.726Z,21.20
2017-08-03T03:02:22.179Z,21.20
2017-08-03T03:04:50.439Z,21.20
2017-08-03T03:07:17.896Z,21.20
2017-08-03T03:09:45.338Z,21.00
2017-08-03T03:12:13.562Z,20.80
2017-08-03T03:14:41.018Z,20.80
2017-08-03T03:17:08.475Z,20.90
2017-08-03T03:19:35.943Z,20.90
2017-08-03T03:22:03.397Z,20.90
2017-08-03T03:24:30.868Z,21.00
2017-08-03T03:26:58.320Z,20.90
2017-08-03T03:29:25.774Z,21.00
2017-08-03T03:31:53.215Z,21.10
2017-08-03T03:34:20.675Z,21.10
2017-08-03T03:36:48.124Z,20.80
2017-08-03T03:39:15.595Z,20.60
2017-08-03T03:41:43.050Z,20.60
2017-08-03T03:44:10.508Z,20.50
2017-08-03T03:46:37.963Z,20.70
2017-08-03T03:49:05.412Z,20.90
2017-08-03T03:51:32.863Z,20.90
2017-08-03T03:54:00.307Z,21.00
2017-08-03T03:56:27.755Z,21.00
2017-08-03T03:58:55.202Z,21.10
2017-08-03T04:01:22.660Z,21.20
2017-08-03T04:03:50.515Z,21.30
2017-08-03T04:06:17.970Z,21.20
2017-08-03T04:08:45.416Z,21.20
2017-08-03T04:11:13.638Z,21.30
2017-08-03T04:13:41.099Z,21.20
2017-08-03T04:16:08.552Z,21.30
2017-08-03T04:18:36.011Z,21.30
2017-08-03T04:21:03.464Z,21.40
2017-08-03T04:23:30.924Z,21.40
2017-08-03T04:25:58.379Z,21.40
2017-08-03T04:28:25.855Z,21.40
2017-08-03T04:30:53.315Z,21.40
2017-08-03T04:33:20.771Z,21.40
2017-08-03T04:35:48.227Z,21.40
2017-08-03T04:38:15.698Z,21.50
2017-08-03T04:40:43.157Z,21.60
2017-08-03T04:43:10.611Z,21.60
2017-08-03T04:45:38.069Z,21.40
2017-08-03T04:48:05.525Z,21.50
2017-08-03T04:50:32.979Z,21.50
2017-08-03T04:53:00.419Z,21.40
2017-08-03T04:55:27.891Z,21.50
2017-08-03T04:57:55.336Z,21.60
2017-08-03T05:00:22.795Z,21.60
2017-08-03T05:02:50.249Z,21.70
2017-08-03T05:05:17.700Z,21.70
2017-08-03T05:07:45.164Z,21.70
2017-08-03T05:10:12.618Z,21.70
2017-08-03T05:12:40.069Z,21.80
2017-08-03T05:15:07.548Z,21.90
2017-08-03T05:17:34.999Z,22.10
2017-08-03T05:20:02.459Z,22.20
2017-08-03T05:22:29.916Z,22.20
2017-08-03T05:24:57.367Z,22.30
2017-08-03T05:27:24.819Z,22.40
2017-08-03T05:29:52.272Z,22.50
2017-08-03T05:32:19.734Z,22.70
2017-08-03T05:34:47.191Z,22.90
2017-08-03T05:37:15.432Z,23.00
2017-08-03T05:39:42.871Z,23.00
2017-08-03T05:42:10.320Z,22.90
2017-08-03T05:44:37.754Z,23.00
2017-08-03T05:47:05.977Z,23.20
2017-08-03T05:49:33.427Z,23.20
2017-08-03T05:52:00.890Z,23.10
2017-08-03T05:54:28.327Z,23.10
2017-08-03T05:56:55.787Z,23.00
2017-08-03T05:59:23.231Z,23.00
2017-08-03T06:01:50.688Z,23.10
2017-08-03T06:04:18.122Z,23.00
2017-08-03T06:06:45.576Z,23.00
2017-08-03T06:09:13.035Z,22.60
2017-08-03T06:11:40.498Z,22.60
2017-08-03T06:14:07.947Z,22.80
2017-08-03T06:16:36.165Z,22.70
2017-08-03T06:19:03.660Z,22.70
2017-08-03T06:21:31.115Z,22.60
2017-08-03T06:23:58.566Z,22.50
2017-08-03T06:26:26.025Z,22.50
2017-08-03T06:28:53.483Z,22.60
2017-08-03T06:31:20.941Z,22.70
2017-08-03T06:33:48.401Z,22.90
2017-08-03T06:36:15.839Z,23.10
2017-08-03T06:38:43.311Z,23.30
2017-08-03T06:41:10.778Z,23.40
2017-08-03T06:43:38.227Z,23.70
2017-08-03T06:46:05.680Z,23.90
2017-08-03T06:48:33.122Z,24.10
2017-08-03T06:51:00.568Z,24.10
2017-08-03T06:53:28.011Z,24.30
2017-08-03T06:55:55.468Z,24.30
2017-08-03T06:58:22.923Z,24.40
2017-08-03T07:00:50.378Z,24.40
2017-08-03T07:03:17.834Z,24.40
2017-08-03T07:05:45.294Z,24.40
2017-08-03T07:08:12.747Z,23.90
2017-08-03T07:10:40.236Z,23.10
2017-08-03T07:13:07.674Z,23.20
2017-08-03T07:15:35.140Z,23.40
2017-08-03T07:18:02.624Z,23.70
2017-08-03T07:20:30.835Z,24.00
2017-08-03T07:22:58.283Z,24.00
2017-08-03T07:25:25.755Z,24.10
2017-08-03T07:27:53.203Z,24.10
2017-08-03T07:30:20.668Z,24.10
2017-08-03T07:32:48.130Z,24.20
2017-08-03T07:35:15.587Z,24.20
2017-08-03T07:37:43.044Z,24.00
2017-08-03T07:40:10.494Z,24.00
2017-08-03T07:42:37.963Z,23.80
2017-08-03T07:45:05.413Z,23.90
2017-08-03T07:47:32.852Z,23.90
2017-08-03T07:50:00.307Z,24.00
2017-08-03T07:52:27.744Z,24.00
2017-08-03T07:54:55.203Z,24.00
2017-08-03T07:57:22.648Z,23.90
2017-08-03T07:59:50.104Z,23.90
2017-08-03T08:02:17.540Z,23.90
2017-08-03T08:04:44.991Z,23.70
2017-08-03T08:07:12.441Z,23.70
2017-08-03T08:09:39.906Z,23.80
2017-08-03T08:12:07.359Z,23.70
2017-08-03T08:14:34.815Z,23.80
2017-08-03T08:17:02.262Z,23.60
2017-08-03T08:19:29.715Z,23.70
2017-08-03T08:21:57.209Z,23.80
2017-08-03T08:24:24.659Z,23.90
2017-08-03T08:26:52.876Z,24.00
2017-08-03T08:29:20.320Z,24.00
2017-08-03T08:31:47.775Z,24.10
2017-08-03T08:34:15.218Z,24.10
2017-08-03T08:36:43.427Z,24.00
2017-08-03T08:39:10.929Z,23.90
2017-08-03T08:41:38.375Z,23.80
2017-08-03T08:44:05.827Z,23.90
2017-08-03T08:46:33.271Z,23.90
2017-08-03T08:49:00.732Z,23.70
2017-08-03T08:51:28.187Z,24.00
2017-08-03T08:53:55.649Z,24.20
2017-08-03T08:56:23.088Z,24.10
2017-08-03T08:58:50.543Z,24.20
2017-08-03T09:01:17.996Z,24.50
2017-08-03T09:03:45.452Z,24.80
2017-08-03T09:06:12.902Z,24.80
2017-08-03T09:08:40.359Z,24.90
2017-08-03T09:11:07.876Z,24.90
2017-08-03T09:13:36.090Z,24.90
2017-08-03T09:16:03.547Z,24.90
2017-08-03T09:18:31.003Z,25.00
2017-08-03T09:20:58.482Z,25.10
2017-08-03T09:23:25.930Z,25.50
2017-08-03T09:25:53.371Z,26.00
2017-08-03T09:28:20.830Z,26.80
2017-08-03T09:30:48.291Z,27.60
2017-08-03T09:33:15.743Z,27.90
2017-08-03T09:35:43.198Z,28.20
2017-08-03T09:38:10.659Z,28.20
2017-08-03T09:40:38.119Z,28.80
2017-08-03T09:43:05.595Z,29.40
2017-08-03T09:45:33.038Z,29.80
2017-08-03T09:48:00.495Z,30.10
2017-08-03T09:50:27.960Z,29.90
2017-08-03T09:52:55.409Z,29.60
2017-08-03T09:55:22.871Z,29.90
2017-08-03T09:57:50.319Z,29.60
2017-08-03T10:00:17.783Z,29.60
2017-08-03T10:02:45.243Z,30.20
2017-08-03T10:05:12.698Z,30.50
2017-08-03T10:07:40.151Z,30.90
2017-08-03T10:10:07.627Z,31.30
2017-08-03T10:12:35.083Z,32.10
2017-08-03T10:15:02.536Z,30.40
2017-08-03T10:17:29.995Z,29.40
2017-08-03T10:19:57.455Z,29.70
2017-08-03T10:22:24.916Z,28.90
2017-08-03T10:24:52.367Z,28.40
2017-08-03T10:27:19.831Z,28.50
2017-08-03T10:29:47.280Z,28.80
2017-08-03T10:32:14.730Z,29.50
2017-08-03T10:34:42.187Z,28.70
2017-08-03T10:37:09.643Z,28.80
2017-08-03T10:39:37.107Z,29.40
2017-08-03T10:42:05.356Z,28.60
2017-08-03T10:44:32.811Z,28.60
2017-08-03T10:47:00.256Z,28.00
2017-08-03T10:49:27.724Z,28.60
2017-08-03T10:51:55.179Z,28.90
2017-08-03T10:54:22.633Z,29.00
2017-08-03T10:56:50.100Z,29.50
2017-08-03T10:59:17.556Z,29.70
2017-08-03T11:01:45.011Z,29.80
2017-08-03T11:04:12.471Z,29.90
2017-08-03T11:06:39.943Z,29.80
2017-08-03T11:09:07.395Z,29.60
2017-08-03T11:11:34.857Z,29.70
2017-08-03T11:14:02.316Z,30.10
2017-08-03T11:16:29.765Z,30.50
2017-08-03T11:18:57.223Z,30.90
2017-08-03T11:21:24.689Z,30.80
2017-08-03T11:23:52.139Z,31.00
2017-08-03T11:26:19.600Z,30.90
2017-08-03T11:28:47.044Z,31.10
2017-08-03T11:31:14.503Z,30.80
2017-08-03T11:33:41.947Z,31.20
2017-08-03T11:36:09.424Z,31.50
2017-08-03T11:38:36.883Z,31.20
2017-08-03T11:41:05.105Z,31.40
2017-08-03T11:43:32.546Z,31.40
2017-08-03T11:45:59.996Z,30.70
2017-08-03T11:48:27.455Z,30.40
2017-08-03T11:50:54.907Z,30.30
2017-08-03T11:53:22.475Z,30.20
2017-08-03T11:55:49.924Z,30.30
2017-08-03T11:58:17.381Z,30.50
2017-08-03T12:00:44.833Z,30.00
2017-08-03T12:03:12.295Z,29.30
2017-08-03T12:05:39.740Z,28.60
2017-08-03T12:08:07.971Z,28.70
2017-08-03T12:10:35.423Z,28.80
2017-08-03T12:13:02.876Z,29.10
2017-08-03T12:15:30.339Z,29.50
2017-08-03T12:17:57.782Z,29.00
2017-08-03T12:20:25.242Z,28.50
2017-08-03T12:22:52.687Z,29.00
2017-08-03T12:25:20.150Z,29.50
2017-08-03T12:27:47.595Z,28.70
2017-08-03T12:30:15.056Z,28.50
2017-08-03T12:32:42.515Z,28.40
2017-08-03T12:35:09.983Z,28.50
2017-08-03T12:37:37.437Z,28.30
2017-08-03T12:40:04.890Z,28.30
2017-08-03T12:42:32.348Z,28.30
2017-08-03T12:44:59.796Z,28.40
2017-08-03T12:47:27.247Z,28.40
2017-08-03T12:49:54.707Z,28.60
2017-08-03T12:52:22.158Z,28.80
2017-08-03T12:54:49.617Z,28.80
2017-08-03T12:57:17.076Z,28.40
2017-08-03T12:59:44.532Z,28.30
2017-08-03T13:02:12.029Z,28.20
2017-08-03T13:04:39.480Z,27.50
2017-08-03T13:07:06.930Z,26.70
2017-08-03T13:09:34.391Z,26.70
2017-08-03T13:12:01.848Z,26.70
2017-08-03T13:14:29.304Z,26.80
2017-08-03T13:16:56.758Z,26.70
2017-08-03T13:19:24.212Z,26.90
2017-08-03T13:21:51.670Z,27.00
2017-08-03T13:24:19.115Z,27.10
2017-08-03T13:26:46.576Z,27.20
2017-08-03T13:29:14.047Z,27.00
2017-08-03T13:31:42.281Z,27.10
2017-08-03T13:34:09.742Z,27.10
2017-08-03T13:36:37.191Z,27.20
2017-08-03T13:39:04.647Z,27.50
2017-08-03T13:41:32.104Z,27.50
2017-08-03T13:43:59.559Z,27.70
2017-08-03T13:46:27.015Z,27.80
2017-08-03T13:48:54.471Z,28.00
2017-08-03T13:51:21.935Z,28.30
2017-08-03T13:53:49.383Z,28.10
2017-08-03T13:56:16.845Z,27.90
2017-08-03T13:58:44.304Z,28.00
2017-08-03T14:01:11.767Z,28.00
2017-08-03T14:03:39.236Z,28.30
2017-08-03T14:06:06.692Z,28.10
2017-08-03T14:08:34.148Z,28.00
2017-08-03T14:11:01.598Z,28.10
2017-08-03T14:13:29.046Z,28.00
2017-08-03T14:15:56.491Z,28.30
2017-08-03T14:18:23.947Z,28.30
2017-08-03T14:20:51.402Z,28.20
2017-08-03T14:23:18.868Z,28.00
2017-08-03T14:25:46.318Z,28.00
2017-08-03T14:28:13.771Z,27.90
2017-08-03T14:30:41.231Z,27.80
2017-08-03T14:33:08.671Z,27.70
2017-08-03T14:35:36.140Z,27.50
2017-08-03T14:38:03.639Z,27.40
2017-08-03T14:40:31.092Z,27.30
2017-08-03T14:42:58.538Z,27.30
2017-08-03T14:45:25.987Z,27.20
2017-08-03T14:47:53.451Z,27.20
2017-08-03T14:50:20.896Z,27.30
2017-08-03T14:52:48.352Z,27.40
2017-08-03T14:55:15.799Z,27.40
2017-08-03T14:57:43.246Z,27.40
2017-08-03T15:00:10.704Z,27.20
2017-08-03T15:02:38.164Z,27.30
2017-08-03T15:05:05.620Z,27.10
2017-08-03T15:07:33.071Z,26.90
2017-08-03T15:10:00.531Z,26.90
2017-08-03T15:12:27.991Z,27.00
2017-08-03T15:14:55.463Z,26.80
2017-08-03T15:17:22.902Z,26.30
2017-08-03T15:19:50.366Z,25.60
2017-08-03T15:22:17.813Z,25.30
2017-08-03T15:24:45.268Z,25.30
2017-08-03T15:27:12.729Z,25.40
2017-08-03T15:29:40.164Z,25.70
2017-08-03T15:32:07.629Z,25.80
2017-08-03T15:34:35.059Z,26.00
2017-08-03T15:37:02.511Z,26.30
2017-08-03T15:39:30.727Z,26.60
2017-08-03T15:41:58.184Z,26.60
2017-08-03T15:44:25.636Z,26.70
2017-08-03T15:46:53.091Z,26.80
2017-08-03T15:49:20.556Z,27.00
2017-08-03T15:51:48.008Z,27.20
2017-08-03T15:54:15.536Z,27.30
2017-08-03T15:56:42.978Z,27.40
2017-08-03T15:59:10.514Z,27.50
2017-08-03T16:01:37.952Z,27.50
2017-08-03T16:04:05.403Z,27.50
2017-08-03T16:06:32.891Z,27.40
2017-08-03T16:09:00.363Z,27.40
2017-08-03T16:11:28.576Z,27.40
2017-08-03T16:13:56.031Z,27.30
2017-08-03T16:16:23.488Z,27.40
2017-08-03T16:18:50.955Z,27.40
2017-08-03T16:21:18.401Z,27.50
2017-08-03T16:23:45.864Z,27.60
2017-08-03T16:26:13.333Z,27.70
2017-08-03T16:28:40.783Z,27.70
2017-08-03T16:31:08.252Z,27.80
2017-08-03T16:33:35.708Z,27.80
2017-08-03T16:36:03.165Z,27.80
2017-08-03T16:38:30.624Z,27.80
2017-08-03T16:40:58.077Z,27.80
2017-08-03T16:43:25.541Z,27.80
2017-08-03T16:45:53.001Z,27.80
2017-08-03T16:48:20.447Z,27.90
2017-08-03T16:50:47.893Z,27.90
2017-08-03T16:53:15.346Z,27.80
2017-08-03T16:55:42.791Z,28.00
2017-08-03T16:58:10.242Z,28.00
2017-08-03T17:00:37.698Z,28.00
2017-08-03T17:03:05.159Z,27.90
2017-08-03T17:05:32.628Z,27.90
2017-08-03T17:08:00.086Z,27.80
2017-08-03T17:10:27.525Z,27.80
2017-08-03T17:12:54.963Z,27.90
2017-08-03T17:15:22.415Z,27.90
2017-08-03T17:17:49.863Z,27.90
2017-08-03T17:20:17.311Z,27.90
2017-08-03T17:22:45.523Z,27.90
2017-08-03T17:25:13.037Z,27.90
2017-08-03T17:27:41.249Z,27.20
2017-08-03T17:30:08.710Z,27.20
2017-08-03T17:32:36.143Z,27.30
2017-08-03T17:35:03.592Z,27.30
2017-08-03T17:37:31.043Z,27.30
2017-08-03T17:39:59.256Z,27.20
2017-08-03T17:42:26.728Z,27.20
2017-08-03T17:44:54.169Z,27.20
2017-08-03T17:47:21.623Z,27.20
2017-08-03T17:49:49.079Z,27.20
2017-08-03T17:52:16.538Z,27.10
2017-08-03T17:54:43.994Z,27.10
2017-08-03T17:57:11.447Z,27.00
2017-08-03T17:59:38.903Z,26.90
2017-08-03T18:02:06.359Z,27.00
2017-08-03T18:04:33.819Z,27.00
2017-08-03T18:07:01.271Z,27.10
2017-08-03T18:09:28.727Z,26.90
2017-08-03T18:11:56.186Z,26.90
2017-08-03T18:14:23.639Z,26.70
2017-08-03T18:16:51.131Z,26.70
2017-08-03T18:19:18.590Z,26.70
2017-08-03T18:21:46.031Z,26.70
2017-08-03T18:24:13.492Z,26.40
2017-08-03T18:26:40.947Z,26.40
2017-08-03T18:29:08.407Z,26.30
2017-08-03T18:31:35.850Z,26.30
2017-08-03T18:34:03.295Z,26.30
2017-08-03T18:36:30.768Z,26.30
2017-08-03T18:38:58.203Z,26.30
2017-08-03T18:41:25.667Z,26.10
2017-08-03T18:43:53.154Z,26.10
2017-08-03T18:46:20.608Z,25.90
2017-08-03T18:48:48.055Z,25.70
2017-08-03T18:51:15.497Z,25.60
2017-08-03T18:53:42.943Z,25.60
2017-08-03T18:56:10.399Z,25.50
2017-08-03T18:58:37.855Z,25.40
2017-08-03T19:01:05.336Z,25.40
2017-08-03T19:03:32.791Z,25.30
2017-08-03T19:06:00.244Z,25.10
2017-08-03T19:08:27.702Z,24.80
2017-08-03T19:10:55.868Z,24.50
2017-08-03T19:13:23.311Z,24.50
2017-08-03T19:15:50.769Z,24.60
2017-08-03T19:18:18.224Z,24.50
2017-08-03T19:20:45.676Z,24.40
2017-08-03T19:23:13.119Z,24.30
2017-08-03T19:25:40.689Z,24.10
2017-08-03T19:28:08.201Z,24.10
2017-08-03T19:30:35.639Z,24.20
2017-08-03T19:33:03.234Z,24.00
2017-08-03T19:35:30.675Z,24.00
2017-08-03T19:37:58.118Z,24.00
2017-08-03T19:40:25.571Z,23.90
2017-08-03T19:42:53.061Z,23.80
2017-08-03T19:45:21.268Z,23.50
2017-08-03T19:47:48.719Z,23.50
2017-08-03T19:50:16.210Z,23.40
2017-08-03T19:52:43.697Z,23.30
2017-08-03T19:55:11.956Z,23.10
2017-08-03T19:57:39.403Z,23.10
2017-08-03T20:00:07.850Z,23.10
2017-08-03T20:02:35.302Z,23.10
2017-08-03T20:05:02.790Z,23.10
2017-08-03T20:07:31.970Z,23.10
2017-08-03T20:10:00.235Z,23.00
2017-08-03T20:12:27.710Z,23.00
2017-08-03T20:14:55.155Z,22.90
2017-08-03T20:17:22.627Z,22.90
2017-08-03T20:19:50.098Z,22.80
2017-08-03T20:22:17.548Z,22.70
2017-08-03T20:24:44.992Z,22.70
2017-08-03T20:27:12.632Z,22.60
2017-08-03T20:29:40.839Z,22.60
2017-08-03T20:32:08.339Z,22.60
2017-08-03T20:34:35.853Z,22.40
2017-08-03T20:37:03.311Z,22.20
2017-08-03T20:39:30.754Z,22.10
2017-08-03T20:41:58.198Z,22.10
2017-08-03T20:44:25.729Z,21.90
2017-08-03T20:46:53.215Z,22.00
2017-08-03T20:49:20.695Z,22.00
2017-08-03T20:51:48.183Z,22.20
2017-08-03T20:54:15.623Z,22.30
2017-08-03T20:56:43.067Z,22.10
2017-08-03T20:59:10.598Z,21.90
2017-08-03T21:01:38.064Z,21.90
2017-08-03T21:04:05.515Z,21.90
2017-08-03T21:06:32.967Z,22.00
2017-08-03T21:09:00.516Z,21.90
2017-08-03T21:11:27.976Z,21.80
2017-08-03T21:13:55.427Z,21.70
2017-08-03T21:16:22.882Z,21.50
2017-08-03T21:18:50.338Z,21.30
2017-08-03T21:21:17.778Z,21.40
2017-08-03T21:23:45.226Z,21.40
2017-08-03T21:26:12.667Z,21.40
2017-08-03T21:28:40.119Z,21.40
2017-08-03T21:31:08.339Z,21.30
2017-08-03T21:33:35.791Z,21.30
2017-08-03T21:36:03.236Z,21.40
2017-08-03T21:38:30.703Z,21.50
2017-08-03T21:40:58.161Z,21.40
2017-08-03T21:43:25.619Z,21.40
2017-08-03T21:45:53.072Z,21.40
2017-08-03T21:48:20.531Z,21.40
2017-08-03T21:50:47.989Z,21.50
2017-08-03T21:53:15.444Z,21.50
2017-08-03T21:55:42.900Z,21.30
2017-08-03T21:58:10.338Z,21.30
2017-08-03T22:00:49.723Z,21.40
2017-08-03T22:03:17.167Z,21.30
2017-08-03T22:05:44.627Z,21.10
2017-08-03T22:08:12.077Z,21.20
2017-08-03T22:10:39.527Z,21.30
2017-08-03T22:13:06.972Z,21.20
2017-08-03T22:15:34.428Z,21.10
2017-08-03T22:18:01.877Z,21.00
2017-08-03T22:20:29.333Z,20.60
2017-08-03T22:22:56.787Z,20.40
2017-08-03T22:25:24.267Z,20.40
2017-08-03T22:27:51.699Z,20.40
2017-08-03T22:30:19.158Z,20.40
2017-08-03T22:32:46.616Z,20.50
2017-08-03T22:35:14.063Z,20.60
2017-08-03T22:37:41.511Z,20.60
2017-08-03T22:40:08.947Z,20.60
2017-08-03T22:42:37.155Z,20.70
2017-08-03T22:45:04.611Z,20.60
2017-08-03T22:47:32.067Z,20.70
2017-08-03T22:49:59.511Z,20.90
2017-08-03T22:52:26.951Z,20.90
2017-08-03T22:54:54.404Z,20.70
2017-08-03T22:57:22.611Z,20.70
2017-08-03T22:59:50.066Z,20.70
2017-08-03T23:02:17.526Z,20.70
2017-08-03T23:04:44.964Z,20.60
2017-08-03T23:07:12.412Z,20.60
2017-08-03T23:09:39.855Z,20.40
2017-08-03T23:12:08.067Z,20.20
2017-08-03T23:14:35.523Z,20.10
2017-08-03T23:17:02.963Z,20.10
2017-08-03T23:19:30.418Z,20.10
2017-08-03T23:21:57.859Z,20.20
2017-08-03T23:24:25.304Z,20.10
2017-08-03T23:26:53.518Z,20.10
2017-08-03T23:29:20.990Z,20.10
2017-08-03T23:31:48.432Z,20.20
2017-08-03T23:34:15.881Z,20.30
2017-08-03T23:36:43.319Z,20.20
2017-08-03T23:39:10.765Z,20.30
2017-08-03T23:41:38.972Z,20.40
2017-08-03T23:44:06.427Z,20.30
2017-08-03T23:46:33.888Z,20.30
2017-08-03T23:49:01.345Z,20.10
2017-08-03T23:51:28.800Z,20.00
2017-08-03T23:53:56.244Z,20.10
2017-08-03T23:56:23.711Z,20.20
2017-08-03T23:58:51.155Z,20.20
